Hatsu Envoy — VSQL9 — position and weather

sailwx.info

Track history (hours):
 
Tides and Currents Weather Stations Pressure Air Temp Water Temp Dewpoint Dewpoint Depression Visibility Wind Speed Wind Dir Waves Ship Positions

Hatsu Envoy

Last reported at 2016-Sep-25 11:32 UTC. Time now 2016-Sep-28 20:33 UTC.
Position N 34°01' E 134°55'.

Type: Cargo ship. MMSI: 235414000.

Date/timePositionNaut miles runAvg speedWind from/ knotsBaromVisibWave heightAir tempDewpointWater temp
2016-Sep-25 11:32N 34°01' E 134°55'1514.9
2016-Sep-25 10:33N 34°15' E 134°58'1413.9
2016-Sep-25 09:33N 34°28' E 135°06'19 9.1
2016-Sep-25 07:30N 34°39' E 135°24'0 0.0
2016-Sep-25 04:30N 34°39' E 135°24'9 2.4
2016-Sep-25 00:33N 34°32' E 135°16'2814.2
2016-Sep-24 22:33N 34°07' E 135°00'1414.0
2016-Sep-24 21:33N 33°53' E 134°60'25814.3
2016-Sep-24 03:33N 35°34' E 139°49'3 3.4
2016-Sep-24 02:33N 35°37' E 139°47'0 0.0
2016-Sep-24 01:33N 35°37' E 139°47'0 0.0
2016-Sep-24 00:33N 35°37' E 139°47'0 0.0
2016-Sep-23 19:33N 35°37' E 139°47'0 0.0
2016-Sep-23 17:33N 35°37' E 139°47'0 0.0
2016-Sep-23 16:33N 35°37' E 139°47'0 0.0
2016-Sep-23 15:33N 35°37' E 139°47'0 0.0
2016-Sep-23 13:33N 35°37' E 139°47'1 0.2
2016-Sep-23 09:33N 35°36' E 139°47'30 9.9
2016-Sep-23 06:33N 35°06' E 139°46'20 9.8
2016-Sep-23 04:32N 34°51' E 140°02'1615.4
2016-Sep-23 03:29N 34°56' E 140°21'1815.5
2016-Sep-23 02:21N 35°07' E 140°37'1215.2
2016-Sep-23 01:32N 35°16' E 140°48'1715.0
2016-Sep-23 00:25N 35°28' E 141°02'1315.0
2016-Sep-22 23:33N 35°38' E 141°13'  
Track history (hours):
 
Tides and Currents Weather Stations Pressure Air Temp Water Temp Dewpoint Dewpoint Depression Visibility Wind Speed Wind Dir Waves Ship Positions

Hatsu Envoy

Last reported at 2016-Sep-25 11:32 UTC. Time now 2016-Sep-28 20:33 UTC.
Position N 34°01' E 134°55'.

Type: Cargo ship. MMSI: 235414000.

Date/timePositionNaut miles runAvg speedWind from/ knotsBaromVisibWave heightAir tempDewpointWater temp
2016-Sep-25 11:32N 34°01' E 134°55'1514.9
2016-Sep-25 10:33N 34°15' E 134°58'1413.9
2016-Sep-25 09:33N 34°28' E 135°06'19 9.1
2016-Sep-25 07:30N 34°39' E 135°24'0 0.0
2016-Sep-25 04:30N 34°39' E 135°24'9 2.4
2016-Sep-25 00:33N 34°32' E 135°16'2814.2
2016-Sep-24 22:33N 34°07' E 135°00'1414.0
2016-Sep-24 21:33N 33°53' E 134°60'25814.3
2016-Sep-24 03:33N 35°34' E 139°49'3 3.4
2016-Sep-24 02:33N 35°37' E 139°47'0 0.0
2016-Sep-24 01:33N 35°37' E 139°47'0 0.0
2016-Sep-24 00:33N 35°37' E 139°47'0 0.0
2016-Sep-23 19:33N 35°37' E 139°47'0 0.0
2016-Sep-23 17:33N 35°37' E 139°47'0 0.0
2016-Sep-23 16:33N 35°37' E 139°47'0 0.0
2016-Sep-23 15:33N 35°37' E 139°47'0 0.0
2016-Sep-23 13:33N 35°37' E 139°47'1 0.2
2016-Sep-23 09:33N 35°36' E 139°47'30 9.9
2016-Sep-23 06:33N 35°06' E 139°46'20 9.8
2016-Sep-23 04:32N 34°51' E 140°02'1615.4
2016-Sep-23 03:29N 34°56' E 140°21'1815.5
2016-Sep-23 02:21N 35°07' E 140°37'1215.2
2016-Sep-23 01:32N 35°16' E 140°48'1715.0
2016-Sep-23 00:25N 35°28' E 141°02'1315.0
2016-Sep-22 23:33N 35°38' E 141°13'  

Dump ship's entire track history